Time;durP1;ratioP1;P1;durP2;ratioP2;P2;SDS_P1;SDS_P2;PMS_P1;PMS_P2;Temp;Humidity;BMP_temperature;BMP_pressure;BME280_temperature;BME280_humidity;BME280_pressure;Samples;Min_cycle;Max_cycle;Signal;HPM_P1;HPM_P2
2022/04/20 00:00:58;;;;;;;10.25;6.93;;;;;;;;;;6230383;28;20061;-69
2022/04/20 00:04:00;;;;;;;11.80;6.65;;;;;;;;;;6233326;28;20498;-71
2022/04/20 00:07:01;;;;;;;8.07;5.65;;;;;;;;;;6234013;28;20140;-71
2022/04/20 00:10:04;;;;;;;9.18;5.63;;;;;;;;;;6231390;28;20524;-71
2022/04/20 00:13:06;;;;;;;7.28;5.25;;;;;;;;;;6232128;28;20187;-71
2022/04/20 00:16:09;;;;;;;6.05;4.18;;;;;;;;;;6235261;28;20034;-71
2022/04/20 00:19:10;;;;;;;7.22;4.30;;;;;;;;;;6234731;28;20625;-71
2022/04/20 00:22:12;;;;;;;7.28;4.50;;;;;;;;;;6235830;28;20052;-73
2022/04/20 00:25:14;;;;;;;9.05;5.72;;;;;;;;;;6236226;28;20400;-72
2022/04/20 00:28:15;;;;;;;15.55;5.78;;;;;;;;;;6235641;28;20089;-71
2022/04/20 00:31:19;;;;;;;6.60;5.55;;;;;;;;;;6235724;28;20060;-72
2022/04/20 00:34:21;;;;;;;9.75;6.28;;;;;;;;;;6231677;28;20045;-71
2022/04/20 00:37:23;;;;;;;8.70;6.50;;;;;;;;;;6238512;28;20420;-72
2022/04/20 00:40:24;;;;;;;9.98;6.35;;;;;;;;;;6237286;28;20129;-71
2022/04/20 00:43:28;;;;;;;6.90;5.22;;;;;;;;;;6244703;28;20123;-72
2022/04/20 00:46:31;;;;;;;8.65;6.03;;;;;;;;;;6253393;28;20099;-71
2022/04/20 00:49:33;;;;;;;6.73;5.20;;;;;;;;;;6263740;28;20059;-72
2022/04/20 00:52:35;;;;;;;7.20;5.80;;;;;;;;;;6262587;28;20049;-70
2022/04/20 00:55:37;;;;;;;8.07;5.45;;;;;;;;;;6262085;28;20443;-71
2022/04/20 00:58:39;;;;;;;7.90;5.07;;;;;;;;;;6256437;28;20033;-72
2022/04/20 01:01:42;;;;;;;7.18;5.35;;;;;;;;;;6258865;28;20044;-70
2022/04/20 01:04:43;;;;;;;8.45;4.85;;;;;;;;;;6256408;28;20194;-71
2022/04/20 01:07:45;;;;;;;9.27;4.95;;;;;;;;;;6257534;28;20052;-69
2022/04/20 01:10:47;;;;;;;6.88;4.72;;;;;;;;;;6257210;28;20061;-70
2022/04/20 01:13:48;;;;;;;6.30;4.60;;;;;;;;;;6255660;28;20124;-71
2022/04/20 01:16:51;;;;;;;8.73;5.18;;;;;;;;;;6258417;28;20184;-70
2022/04/20 01:19:53;;;;;;;8.77;5.15;;;;;;;;;;6256180;28;20563;-69
2022/04/20 01:22:56;;;;;;;9.85;4.75;;;;;;;;;;6252916;28;20180;-70
2022/04/20 01:25:57;;;;;;;6.18;4.63;;;;;;;;;;6257117;28;20907;-66
2022/04/20 01:29:00;;;;;;;7.60;5.00;;;;;;;;;;6249505;28;20135;-70
2022/04/20 01:32:02;;;;;;;12.15;5.28;;;;;;;;;;6256834;28;20056;-72
2022/04/20 01:35:04;;;;;;;6.47;5.20;;;;;;;;;;6256988;28;20126;-70
2022/04/20 01:38:07;;;;;;;8.48;5.65;;;;;;;;;;6256981;28;20041;-70
2022/04/20 01:41:09;;;;;;;8.13;6.00;;;;;;;;;;6258348;28;20111;-71
2022/04/20 01:44:11;;;;;;;7.60;6.05;;;;;;;;;;6256967;28;20065;-71
2022/04/20 01:47:12;;;;;;;7.95;5.10;;;;;;;;;;6251382;28;20473;-70
2022/04/20 01:50:14;;;;;;;10.90;5.85;;;;;;;;;;6260381;28;20124;-71
2022/04/20 01:53:17;;;;;;;10.00;5.40;;;;;;;;;;6258567;28;20246;-74
2022/04/20 01:56:19;;;;;;;10.98;6.03;;;;;;;;;;6257860;28;20308;-71
2022/04/20 01:59:20;;;;;;;9.68;6.20;;;;;;;;;;6259453;28;20654;-73
2022/04/20 02:02:38;;;;;;;8.30;5.57;;;;;;;;;;6253730;28;20444;-74
2022/04/20 02:05:40;;;;;;;9.18;5.90;;;;;;;;;;6258455;28;20049;-72
2022/04/20 02:08:43;;;;;;;10.82;5.55;;;;;;;;;;6261298;28;20444;-72
2022/04/20 02:11:44;;;;;;;9.65;6.00;;;;;;;;;;6258028;28;20061;-71
2022/04/20 02:14:47;;;;;;;9.20;6.25;;;;;;;;;;6260283;28;20056;-73
2022/04/20 02:17:49;;;;;;;9.00;6.55;;;;;;;;;;6262978;28;20053;-76
2022/04/20 02:20:50;;;;;;;11.55;6.00;;;;;;;;;;6259806;28;20046;-71
2022/04/20 02:23:53;;;;;;;11.10;5.72;;;;;;;;;;6259257;28;20582;-76
2022/04/20 02:26:55;;;;;;;8.75;6.18;;;;;;;;;;6261424;28;20044;-72
2022/04/20 02:29:56;;;;;;;11.15;6.80;;;;;;;;;;6261041;28;20049;-72
2022/04/20 02:32:58;;;;;;;11.07;6.22;;;;;;;;;;6266370;28;20099;-74
2022/04/20 02:36:00;;;;;;;9.07;6.53;;;;;;;;;;6262419;28;20048;-72
2022/04/20 02:39:04;;;;;;;9.48;6.78;;;;;;;;;;6265812;28;20793;-71
2022/04/20 02:42:07;;;;;;;11.35;6.78;;;;;;;;;;6259244;28;20059;-71
2022/04/20 02:45:09;;;;;;;9.32;6.15;;;;;;;;;;6258450;28;20130;-71
2022/04/20 02:48:10;;;;;;;8.77;6.43;;;;;;;;;;6262063;28;20053;-72
2022/04/20 02:51:12;;;;;;;12.85;7.28;;;;;;;;;;6261184;28;20397;-72
2022/04/20 02:54:15;;;;;;;8.63;6.90;;;;;;;;;;6257403;28;20057;-72
2022/04/20 02:57:18;;;;;;;13.63;7.00;;;;;;;;;;6256062;28;20126;-73
2022/04/20 03:00:20;;;;;;;9.40;6.85;;;;;;;;;;6261193;28;20067;-75
2022/04/20 03:03:22;;;;;;;9.38;6.82;;;;;;;;;;6261373;28;20500;-74
2022/04/20 03:06:23;;;;;;;8.85;6.55;;;;;;;;;;6264608;28;20057;-71
2022/04/20 03:09:26;;;;;;;14.05;7.30;;;;;;;;;;6260667;28;20048;-73
2022/04/20 03:12:28;;;;;;;13.07;6.88;;;;;;;;;;6261864;28;20128;-72
2022/04/20 03:15:29;;;;;;;12.95;6.78;;;;;;;;;;6261415;28;20053;-72
2022/04/20 03:18:32;;;;;;;13.00;7.57;;;;;;;;;;6260707;28;20053;-74
2022/04/20 03:21:34;;;;;;;12.13;7.28;;;;;;;;;;6265465;28;20160;-75
2022/04/20 03:24:37;;;;;;;12.73;7.38;;;;;;;;;;6258338;28;20065;-72
2022/04/20 03:27:39;;;;;;;13.02;6.95;;;;;;;;;;6267047;28;20515;-72
2022/04/20 03:30:41;;;;;;;9.40;6.68;;;;;;;;;;6258497;28;20961;-72
2022/04/20 03:33:43;;;;;;;11.32;7.43;;;;;;;;;;6266723;28;20059;-73
2022/04/20 03:36:44;;;;;;;12.05;6.35;;;;;;;;;;6264507;28;20136;-72
2022/04/20 03:39:47;;;;;;;14.38;7.05;;;;;;;;;;6264209;28;20076;-72
2022/04/20 03:42:49;;;;;;;11.05;6.82;;;;;;;;;;6258742;28;20076;-71
2022/04/20 03:45:51;;;;;;;12.75;7.38;;;;;;;;;;6253919;28;20052;-77
2022/04/20 03:48:53;;;;;;;11.68;6.78;;;;;;;;;;6253242;28;20076;-72
2022/04/20 03:51:54;;;;;;;8.75;6.75;;;;;;;;;;6254872;28;20083;-72
2022/04/20 03:54:57;;;;;;;10.35;6.70;;;;;;;;;;6253917;28;20520;-74
2022/04/20 03:57:59;;;;;;;8.40;6.53;;;;;;;;;;6257076;28;20053;-71
2022/04/20 04:01:01;;;;;;;10.38;7.10;;;;;;;;;;6258445;28;20491;-72
2022/04/20 04:04:05;;;;;;;10.95;7.10;;;;;;;;;;6256559;28;20056;-72
2022/04/20 04:07:07;;;;;;;9.98;6.47;;;;;;;;;;6257854;28;20054;-71
2022/04/20 04:10:10;;;;;;;9.38;7.18;;;;;;;;;;6257045;28;20044;-71
2022/04/20 04:13:12;;;;;;;12.35;7.70;;;;;;;;;;6260273;28;20451;-70
2022/04/20 04:16:14;;;;;;;9.10;6.78;;;;;;;;;;6255914;28;20131;-72
2022/04/20 04:19:15;;;;;;;13.55;7.35;;;;;;;;;;6258381;28;20152;-71
2022/04/20 04:22:17;;;;;;;12.18;6.70;;;;;;;;;;6257267;28;20087;-76
2022/04/20 04:25:21;;;;;;;10.43;7.10;;;;;;;;;;6257490;28;20045;-72
2022/04/20 04:28:22;;;;;;;10.65;7.28;;;;;;;;;;6259702;28;20123;-73
2022/04/20 04:31:24;;;;;;;9.82;6.95;;;;;;;;;;6258647;28;20053;-73
2022/04/20 04:34:26;;;;;;;10.60;6.93;;;;;;;;;;6256251;28;20069;-72
2022/04/20 04:37:27;;;;;;;11.57;7.35;;;;;;;;;;6261365;28;20045;-69
2022/04/20 04:40:31;;;;;;;13.50;6.88;;;;;;;;;;6257384;28;20427;-71
2022/04/20 04:43:32;;;;;;;9.37;6.27;;;;;;;;;;6262593;28;20497;-71
2022/04/20 04:49:53;;;;;;;12.20;6.60;;;;;;;;;;6261495;28;20061;-72
2022/04/20 04:52:55;;;;;;;10.85;6.35;;;;;;;;;;6259642;28;20409;-68
2022/04/20 04:55:58;;;;;;;12.00;6.55;;;;;;;;;;6259466;28;20112;-73
2022/04/20 04:58:59;;;;;;;9.40;6.30;;;;;;;;;;6254877;28;20082;-75
2022/04/20 05:02:01;;;;;;;11.27;6.68;;;;;;;;;;6261560;28;20147;-71
2022/04/20 05:05:03;;;;;;;9.82;6.57;;;;;;;;;;6258828;28;20052;-71
2022/04/20 05:08:05;;;;;;;11.77;5.88;;;;;;;;;;6257949;28;20448;-71
2022/04/20 05:11:08;;;;;;;9.25;6.25;;;;;;;;;;6257351;28;20057;-71
2022/04/20 05:14:12;;;;;;;8.73;5.97;;;;;;;;;;6256342;28;20076;-71
2022/04/20 05:17:14;;;;;;;10.48;5.32;;;;;;;;;;6258366;28;20557;-72
2022/04/20 05:20:16;;;;;;;12.65;6.07;;;;;;;;;;6261386;28;20210;-71
2022/04/20 05:23:17;;;;;;;7.22;5.82;;;;;;;;;;6262319;28;20502;-70
2022/04/20 05:26:20;;;;;;;6.95;5.50;;;;;;;;;;6260961;28;20051;-72
2022/04/20 05:29:22;;;;;;;12.57;5.80;;;;;;;;;;6258790;28;20052;-71
2022/04/20 05:32:23;;;;;;;12.00;5.25;;;;;;;;;;6260060;28;20142;-72
2022/04/20 05:35:25;;;;;;;7.07;5.30;;;;;;;;;;6259259;28;20077;-71
2022/04/20 05:41:47;;;;;;;10.70;5.53;;;;;;;;;;6256914;28;20049;-70
2022/04/20 05:44:49;;;;;;;12.95;5.13;;;;;;;;;;6255684;28;20445;-71
2022/04/20 05:47:50;;;;;;;8.13;4.85;;;;;;;;;;6263312;28;20482;-70
2022/04/20 05:50:52;;;;;;;9.32;5.10;;;;;;;;;;6255538;28;20078;-71
2022/04/20 05:53:54;;;;;;;7.50;4.65;;;;;;;;;;6259535;28;20358;-70
2022/04/20 05:56:57;;;;;;;6.13;4.95;;;;;;;;;;6257323;28;20381;-70
2022/04/20 05:59:59;;;;;;;6.70;4.68;;;;;;;;;;6262301;28;20049;-71
2022/04/20 06:03:00;;;;;;;8.52;4.38;;;;;;;;;;6259667;28;20595;-72
2022/04/20 06:06:03;;;;;;;6.30;4.28;;;;;;;;;;6262369;28;20080;-76
2022/04/20 06:09:05;;;;;;;9.70;4.60;;;;;;;;;;6265999;28;20141;-72
2022/04/20 06:12:09;;;;;;;14.55;4.50;;;;;;;;;;6262746;28;20126;-71
2022/04/20 06:15:10;;;;;;;8.10;4.03;;;;;;;;;;6260875;28;20053;-70
2022/04/20 06:18:12;;;;;;;10.35;4.00;;;;;;;;;;6260612;28;20070;-71
2022/04/20 06:21:13;;;;;;;11.48;4.00;;;;;;;;;;6259220;28;20091;-70
2022/04/20 06:24:15;;;;;;;7.82;4.00;;;;;;;;;;6261705;28;20049;-73
2022/04/20 06:27:18;;;;;;;9.40;3.35;;;;;;;;;;6263660;28;20052;-73
2022/04/20 06:30:20;;;;;;;10.15;3.88;;;;;;;;;;6257058;28;20049;-75
2022/04/20 06:33:23;;;;;;;8.43;3.83;;;;;;;;;;6264523;28;20127;-73
2022/04/20 06:36:25;;;;;;;9.90;5.03;;;;;;;;;;6267263;28;20057;-74
2022/04/20 06:39:26;;;;;;;5.28;3.45;;;;;;;;;;6261654;28;20144;-72
2022/04/20 06:42:29;;;;;;;10.13;3.72;;;;;;;;;;6257004;28;20096;-72
2022/04/20 06:45:31;;;;;;;7.22;3.55;;;;;;;;;;6256714;28;20092;-73
2022/04/20 06:48:32;;;;;;;5.32;3.70;;;;;;;;;;6260579;28;20146;-72
2022/04/20 07:01:29;;;;;;;5.80;3.08;;;;;;;;;;6262298;28;20046;-72
2022/04/20 07:04:31;;;;;;;5.43;3.00;;;;;;;;;;6260137;28;20068;-72
2022/04/20 07:07:32;;;;;;;6.82;3.50;;;;;;;;;;6263045;28;20143;-72
2022/04/20 07:10:34;;;;;;;10.40;3.50;;;;;;;;;;6260946;28;20420;-73
2022/04/20 07:13:37;;;;;;;6.25;3.53;;;;;;;;;;6260670;28;20413;-72
2022/04/20 07:16:39;;;;;;;5.57;3.08;;;;;;;;;;6262497;28;20405;-73
2022/04/20 07:19:41;;;;;;;6.18;3.45;;;;;;;;;;6265524;28;20056;-70
2022/04/20 07:22:43;;;;;;;6.47;3.38;;;;;;;;;;6263007;28;20504;-72
2022/04/20 07:25:44;;;;;;;7.60;3.97;;;;;;;;;;6266445;28;20604;-72
2022/04/20 07:28:47;;;;;;;7.18;3.00;;;;;;;;;;6264477;28;20049;-72
2022/04/20 07:31:49;;;;;;;6.13;3.40;;;;;;;;;;6268320;28;20049;-72
2022/04/20 07:34:51;;;;;;;5.30;3.15;;;;;;;;;;6261830;28;20049;-71
2022/04/20 07:37:52;;;;;;;7.65;3.97;;;;;;;;;;6260376;28;20045;-72
2022/04/20 07:40:54;;;;;;;7.93;3.72;;;;;;;;;;6257621;28;20610;-74
2022/04/20 07:43:57;;;;;;;6.68;3.38;;;;;;;;;;6255140;28;20083;-72
2022/04/20 07:46:59;;;;;;;6.53;3.40;;;;;;;;;;6253090;28;20045;-71
2022/04/20 07:50:19;;;;;;;4.53;3.30;;;;;;;;;;6258256;28;20049;-71
2022/04/20 07:53:20;;;;;;;6.30;2.78;;;;;;;;;;6259825;28;20405;-74
2022/04/20 07:56:23;;;;;;;5.63;3.17;;;;;;;;;;6258318;28;20428;-72
2022/04/20 07:59:26;;;;;;;8.05;3.40;;;;;;;;;;6259672;28;20053;-71
2022/04/20 08:02:27;;;;;;;7.38;3.15;;;;;;;;;;6259614;28;20049;-71
2022/04/20 08:05:29;;;;;;;5.50;3.08;;;;;;;;;;6258955;28;20397;-72
2022/04/20 08:08:30;;;;;;;8.27;2.83;;;;;;;;;;6261024;28;20086;-72
2022/04/20 08:11:32;;;;;;;10.93;3.33;;;;;;;;;;6260469;28;20448;-72
2022/04/20 08:14:35;;;;;;;5.75;2.67;;;;;;;;;;6257373;28;20106;-71
2022/04/20 08:17:37;;;;;;;6.10;2.70;;;;;;;;;;6261598;28;20485;-71
2022/04/20 08:20:39;;;;;;;6.25;3.28;;;;;;;;;;6262288;28;20072;-71
2022/04/20 08:23:40;;;;;;;9.02;3.20;;;;;;;;;;6260398;28;20145;-72
2022/04/20 08:26:42;;;;;;;4.45;2.72;;;;;;;;;;6261451;28;20497;-72
2022/04/20 08:29:46;;;;;;;11.73;3.08;;;;;;;;;;6265456;28;20106;-71
2022/04/20 08:32:48;;;;;;;10.32;3.38;;;;;;;;;;6266501;28;20445;-74
2022/04/20 08:35:50;;;;;;;6.78;2.85;;;;;;;;;;6267681;28;20056;-71
2022/04/20 08:38:51;;;;;;;5.10;2.92;;;;;;;;;;6264336;28;20049;-72
2022/04/20 08:41:53;;;;;;;5.38;2.65;;;;;;;;;;6260533;28;20084;-72
2022/04/20 08:45:01;;;;;;;7.78;3.10;;;;;;;;;;6252997;28;20096;-71
2022/04/20 08:48:03;;;;;;;6.95;2.80;;;;;;;;;;6254998;28;20057;-72
2022/04/20 08:51:05;;;;;;;6.07;2.80;;;;;;;;;;6252593;28;20045;-71
2022/04/20 08:54:07;;;;;;;6.90;2.83;;;;;;;;;;6256036;28;20056;-71
2022/04/20 08:57:19;;;;;;;7.07;2.97;;;;;;;;;;6257321;28;20072;-76
2022/04/20 09:00:25;;;;;;;6.57;3.20;;;;;;;;;;6257147;28;20593;-73
2022/04/20 09:03:27;;;;;;;7.75;2.83;;;;;;;;;;6257049;28;20130;-75
2022/04/20 09:06:28;;;;;;;7.13;3.35;;;;;;;;;;6254807;28;20507;-73
2022/04/20 09:09:30;;;;;;;7.88;2.92;;;;;;;;;;6256247;28;20056;-73
2022/04/20 09:12:32;;;;;;;6.75;3.22;;;;;;;;;;6256719;28;20042;-75
2022/04/20 09:15:36;;;;;;;5.63;2.80;;;;;;;;;;6259363;28;20057;-74
2022/04/20 09:18:38;;;;;;;9.43;3.17;;;;;;;;;;6257802;28;20516;-71
2022/04/20 09:21:41;;;;;;;10.45;3.50;;;;;;;;;;6256962;28;20507;-73
2022/04/20 09:24:57;;;;;;;9.52;3.53;;;;;;;;;;6262291;28;20508;-73
2022/04/20 09:27:59;;;;;;;5.40;2.70;;;;;;;;;;6259869;28;20124;-74
2022/04/20 09:31:02;;;;;;;5.95;2.75;;;;;;;;;;6261846;28;20052;-74
2022/04/20 09:34:03;;;;;;;8.00;3.10;;;;;;;;;;6255965;28;20053;-74
2022/04/20 09:37:14;;;;;;;5.90;2.65;;;;;;;;;;6254495;28;20049;-74
2022/04/20 09:40:16;;;;;;;11.40;3.15;;;;;;;;;;6254408;28;20215;-74
2022/04/20 09:43:20;;;;;;;6.93;3.08;;;;;;;;;;6257289;28;20045;-72
2022/04/20 09:49:53;;;;;;;139.35;98.72;;;;;;;;;;6258581;28;20057;-72
2022/04/20 09:52:59;;;;;;;27.88;14.43;;;;;;;;;;6260176;28;20045;-73
2022/04/20 09:56:15;;;;;;;204.90;126.35;;;;;;;;;;6263656;28;20063;-69
2022/04/20 09:59:17;;;;;;;7.72;3.97;;;;;;;;;;6255950;28;20073;-71
2022/04/20 10:02:20;;;;;;;9.60;3.10;;;;;;;;;;6263208;28;20056;-72
2022/04/20 10:05:23;;;;;;;6.93;3.33;;;;;;;;;;6253372;28;20124;-73
2022/04/20 10:08:25;;;;;;;8.13;3.03;;;;;;;;;;6257207;28;20052;-71
2022/04/20 10:11:27;;;;;;;5.75;3.30;;;;;;;;;;6256989;28;20065;-71
2022/04/20 10:17:53;;;;;;;4.90;2.55;;;;;;;;;;6256315;28;20052;-72
2022/04/20 10:20:56;;;;;;;3.83;2.70;;;;;;;;;;6258077;28;20118;-71
2022/04/20 10:24:05;;;;;;;5.85;2.45;;;;;;;;;;6259121;28;20496;-71
2022/04/20 10:27:09;;;;;;;4.15;2.83;;;;;;;;;;6258992;28;20056;-71
2022/04/20 10:30:16;;;;;;;4.80;2.88;;;;;;;;;;6258553;28;20045;-72
2022/04/20 10:33:20;;;;;;;6.82;2.80;;;;;;;;;;6256361;28;20139;-70
2022/04/20 10:36:29;;;;;;;8.50;3.20;;;;;;;;;;6257216;28;20400;-71
2022/04/20 10:39:36;;;;;;;5.97;2.70;;;;;;;;;;6251367;28;20428;-73
2022/04/20 10:42:38;;;;;;;6.10;2.67;;;;;;;;;;6255838;28;20132;-72
2022/04/20 10:45:41;;;;;;;9.10;3.00;;;;;;;;;;6255386;28;20134;-71
2022/04/20 10:48:58;;;;;;;6.35;3.03;;;;;;;;;;6256964;28;20196;-71
2022/04/20 10:52:00;;;;;;;5.75;2.78;;;;;;;;;;6258514;28;20056;-72
2022/04/20 10:55:04;;;;;;;7.95;3.08;;;;;;;;;;6263614;28;20107;-72
2022/04/20 10:58:09;;;;;;;6.78;3.03;;;;;;;;;;6261127;28;20045;-72
2022/04/20 11:01:11;;;;;;;7.97;3.40;;;;;;;;;;6261572;28;20049;-72
2022/04/20 11:04:14;;;;;;;6.78;3.30;;;;;;;;;;6263496;28;20519;-71
2022/04/20 11:07:18;;;;;;;4.95;3.50;;;;;;;;;;6262154;28;20041;-71
2022/04/20 11:10:19;;;;;;;8.77;3.10;;;;;;;;;;6261947;28;20116;-71
2022/04/20 11:20:25;;;;;;;5.78;3.28;;;;;;;;;;6259520;28;20135;-72
2022/04/20 11:24:02;;;;;;;9.23;3.55;;;;;;;;;;6260297;28;20104;-71
2022/04/20 11:27:04;;;;;;;5.80;3.10;;;;;;;;;;6259630;28;20049;-71
2022/04/20 11:30:07;;;;;;;7.85;3.53;;;;;;;;;;6260229;28;20139;-70
2022/04/20 11:33:09;;;;;;;8.02;3.80;;;;;;;;;;6258606;28;20052;-71
2022/04/20 11:36:13;;;;;;;9.68;3.92;;;;;;;;;;6256621;28;20053;-70
2022/04/20 11:39:16;;;;;;;7.10;3.58;;;;;;;;;;6256696;28;20121;-70
2022/04/20 11:42:17;;;;;;;7.53;3.85;;;;;;;;;;6253287;28;20581;-70
2022/04/20 11:45:32;;;;;;;6.80;3.35;;;;;;;;;;6257682;28;20493;-70
2022/04/20 11:48:35;;;;;;;7.45;3.45;;;;;;;;;;6256383;28;20119;-70
2022/04/20 11:51:38;;;;;;;6.68;3.17;;;;;;;;;;6258969;28;21123;-70
2022/04/20 11:54:41;;;;;;;6.65;3.85;;;;;;;;;;6260242;28;20053;-71
2022/04/20 11:57:44;;;;;;;8.82;3.80;;;;;;;;;;6259750;28;20060;-70
2022/04/20 12:00:46;;;;;;;5.80;3.67;;;;;;;;;;6258356;28;20049;-70
2022/04/20 12:03:50;;;;;;;7.38;3.33;;;;;;;;;;6256301;28;20056;-71
2022/04/20 12:06:55;;;;;;;7.72;3.38;;;;;;;;;;6260269;28;20045;-70
2022/04/20 12:09:57;;;;;;;9.32;3.15;;;;;;;;;;6259917;28;20504;-69
2022/04/20 12:13:03;;;;;;;6.97;3.15;;;;;;;;;;6260654;28;20215;-70
2022/04/20 12:16:06;;;;;;;5.53;3.38;;;;;;;;;;6258121;28;20144;-70
2022/04/20 12:19:08;;;;;;;4.20;3.10;;;;;;;;;;6262208;28;20045;-70
2022/04/20 12:22:12;;;;;;;10.38;3.78;;;;;;;;;;6259810;28;20059;-70
2022/04/20 12:25:19;;;;;;;5.60;3.42;;;;;;;;;;6264061;28;20386;-71
2022/04/20 12:31:44;;;;;;;15.88;10.23;;;;;;;;;;6256439;28;20049;-72
2022/04/20 12:34:53;;;;;;;;;;;;;;;;;;6250293;28;20053;-72
2022/04/20 12:37:57;;;;;;;12.18;3.97;;;;;;;;;;6259022;28;20361;-71
2022/04/20 12:40:58;;;;;;;7.70;3.72;;;;;;;;;;6251828;28;20178;-76
2022/04/20 12:44:00;;;;;;;9.55;3.35;;;;;;;;;;6253537;28;20046;-73
2022/04/20 12:47:02;;;;;;;8.80;3.60;;;;;;;;;;6254893;28;20052;-72
2022/04/20 12:50:20;;;;;;;8.52;3.70;;;;;;;;;;6254622;28;20045;-75
2022/04/20 12:53:23;;;;;;;7.55;3.72;;;;;;;;;;6258437;28;20044;-75
2022/04/20 13:03:04;;;;;;;9.60;3.83;;;;;;;;;;6257619;28;20443;-72
2022/04/20 13:06:10;;;;;;;5.35;3.53;;;;;;;;;;6260180;28;20444;-70
2022/04/20 13:09:13;;;;;;;9.32;4.15;;;;;;;;;;6260888;28;20059;-70
2022/04/20 13:12:14;;;;;;;7.97;3.60;;;;;;;;;;6257758;28;20171;-70
2022/04/20 13:15:16;;;;;;;8.93;4.10;;;;;;;;;;6259221;28;20060;-70
2022/04/20 13:18:18;;;;;;;6.47;3.75;;;;;;;;;;6258819;28;20037;-70
2022/04/20 13:21:19;;;;;;;9.30;3.80;;;;;;;;;;6263570;28;20045;-69
2022/04/20 13:27:56;;;;;;;5.43;4.07;;;;;;;;;;6263204;28;20083;-71
2022/04/20 13:30:58;;;;;;;50.03;36.97;;;;;;;;;;6255389;28;20041;-70
2022/04/20 13:34:00;;;;;;;34.28;19.02;;;;;;;;;;6251535;28;20077;-74
2022/04/20 13:37:02;;;;;;;14.82;7.85;;;;;;;;;;6258068;28;20051;-76
2022/04/20 13:40:06;;;;;;;11.45;5.38;;;;;;;;;;6258374;28;20042;-72
2022/04/20 13:43:08;;;;;;;20.77;12.40;;;;;;;;;;6251646;28;20119;-71
2022/04/20 13:46:10;;;;;;;15.80;8.98;;;;;;;;;;6249313;28;20516;-71
2022/04/20 13:49:12;;;;;;;12.13;6.13;;;;;;;;;;6248272;28;20049;-70
2022/04/20 13:52:13;;;;;;;21.77;10.27;;;;;;;;;;6251525;28;20041;-72
2022/04/20 13:55:17;;;;;;;18.15;11.43;;;;;;;;;;6256557;28;20107;-72
2022/04/20 13:58:19;;;;;;;66.53;35.97;;;;;;;;;;6257490;28;20055;-71
2022/04/20 14:01:20;;;;;;;13.15;5.95;;;;;;;;;;6255399;28;20085;-73
2022/04/20 14:04:22;;;;;;;103.72;48.50;;;;;;;;;;6254873;28;20056;-71
2022/04/20 14:07:24;;;;;;;14.27;7.75;;;;;;;;;;6255373;28;20068;-70
2022/04/20 14:10:27;;;;;;;6.90;4.30;;;;;;;;;;6255052;28;20496;-71
2022/04/20 14:13:28;;;;;;;6.03;3.30;;;;;;;;;;6258079;28;20228;-71
2022/04/20 14:16:31;;;;;;;9.02;3.92;;;;;;;;;;6256512;28;20049;-71
2022/04/20 14:19:32;;;;;;;8.35;3.63;;;;;;;;;;6259187;28;20053;-71
2022/04/20 14:22:34;;;;;;;4.97;3.65;;;;;;;;;;6259780;28;20420;-72
2022/04/20 14:32:19;;;;;;;5.65;2.83;;;;;;;;;;6254313;28;20080;-71
2022/04/20 14:35:21;;;;;;;8.85;4.15;;;;;;;;;;6261576;28;20048;-71
2022/04/20 14:38:23;;;;;;;8.95;4.15;;;;;;;;;;6261215;28;20413;-71
2022/04/20 14:41:26;;;;;;;10.13;3.97;;;;;;;;;;6261557;28;20045;-73
2022/04/20 14:44:30;;;;;;;14.30;4.30;;;;;;;;;;6259397;28;20420;-70
2022/04/20 14:47:32;;;;;;;14.50;4.25;;;;;;;;;;6260926;28;20086;-72
2022/04/20 14:50:33;;;;;;;9.70;3.72;;;;;;;;;;6258065;28;20049;-72
2022/04/20 14:53:35;;;;;;;8.45;4.30;;;;;;;;;;6257599;28;20117;-72
2022/04/20 14:56:38;;;;;;;8.18;4.55;;;;;;;;;;6262630;28;20499;-72
2022/04/20 14:59:39;;;;;;;9.13;4.20;;;;;;;;;;6261759;28;20151;-71
2022/04/20 15:02:41;;;;;;;7.25;3.60;;;;;;;;;;6262516;28;20045;-72
2022/04/20 15:05:43;;;;;;;6.68;4.10;;;;;;;;;;6259641;28;20669;-79
2022/04/20 15:08:44;;;;;;;21.15;11.75;;;;;;;;;;6259918;28;20045;-78
2022/04/20 15:11:47;;;;;;;10.18;6.53;;;;;;;;;;6266993;28;20096;-77
2022/04/20 15:14:49;;;;;;;6.10;4.70;;;;;;;;;;6260183;28;20049;-71
2022/04/20 15:17:51;;;;;;;5.80;3.80;;;;;;;;;;6262949;28;20063;-71
2022/04/20 15:20:52;;;;;;;8.63;4.43;;;;;;;;;;6263610;28;20049;-71
2022/04/20 15:23:55;;;;;;;7.05;4.30;;;;;;;;;;6263361;28;20045;-72
2022/04/20 15:26:58;;;;;;;8.43;4.68;;;;;;;;;;6264459;28;20099;-74
2022/04/20 15:29:59;;;;;;;12.80;4.50;;;;;;;;;;6258007;28;20508;-71
2022/04/20 15:33:01;;;;;;;6.35;4.43;;;;;;;;;;6256939;28;20139;-71
2022/04/20 15:36:04;;;;;;;5.28;4.20;;;;;;;;;;6261261;28;20048;-71
2022/04/20 15:39:08;;;;;;;8.43;4.22;;;;;;;;;;6256318;28;21068;-71
2022/04/20 15:42:11;;;;;;;6.05;3.78;;;;;;;;;;6261120;28;20465;-71
2022/04/20 15:45:13;;;;;;;8.77;4.22;;;;;;;;;;6261469;28;20053;-71
2022/04/20 15:48:17;;;;;;;8.82;4.57;;;;;;;;;;6264448;28;20057;-71
2022/04/20 15:51:19;;;;;;;7.03;4.10;;;;;;;;;;6260498;28;20045;-77
2022/04/20 15:54:20;;;;;;;6.82;4.80;;;;;;;;;;6262656;28;20421;-72
2022/04/20 16:00:44;;;;;;;11.45;5.80;;;;;;;;;;6262558;28;20054;-72
2022/04/20 16:03:45;;;;;;;7.43;4.70;;;;;;;;;;6258246;28;20049;-72
2022/04/20 16:06:47;;;;;;;10.73;4.70;;;;;;;;;;6261543;28;20398;-72
2022/04/20 16:09:49;;;;;;;9.07;4.75;;;;;;;;;;6264967;28;20064;-72
2022/04/20 16:12:52;;;;;;;9.45;4.15;;;;;;;;;;6262779;28;20481;-72
2022/04/20 16:15:53;;;;;;;7.32;4.18;;;;;;;;;;6261462;28;20076;-75
2022/04/20 16:18:55;;;;;;;8.98;4.70;;;;;;;;;;6263629;28;20442;-72
2022/04/20 16:21:57;;;;;;;9.13;5.50;;;;;;;;;;6264703;28;20188;-73
2022/04/20 16:24:58;;;;;;;8.00;4.25;;;;;;;;;;6258765;28;20049;-71
2022/04/20 16:28:02;;;;;;;9.25;4.78;;;;;;;;;;6263089;28;20056;-73
2022/04/20 16:31:04;;;;;;;7.25;4.38;;;;;;;;;;6258775;28;20124;-72
2022/04/20 16:34:06;;;;;;;10.13;4.68;;;;;;;;;;6254619;28;20053;-70
2022/04/20 16:37:07;;;;;;;6.03;4.55;;;;;;;;;;6251442;28;20171;-71
2022/04/20 16:40:10;;;;;;;7.20;4.65;;;;;;;;;;6254967;28;20468;-73
2022/04/20 16:43:14;;;;;;;6.65;4.50;;;;;;;;;;6254975;28;20087;-71
2022/04/20 16:46:16;;;;;;;7.10;4.80;;;;;;;;;;6256485;28;20052;-71
2022/04/20 16:49:19;;;;;;;7.20;4.60;;;;;;;;;;6255787;28;20041;-71
2022/04/20 16:52:21;;;;;;;5.78;4.55;;;;;;;;;;6255351;28;20068;-71
2022/04/20 16:55:22;;;;;;;6.13;4.03;;;;;;;;;;6261769;28;20045;-74
2022/04/20 16:58:26;;;;;;;6.90;4.53;;;;;;;;;;6258830;28;20053;-72
2022/04/20 17:01:27;;;;;;;6.30;4.18;;;;;;;;;;6259923;28;20063;-71
2022/04/20 17:04:29;;;;;;;11.75;4.30;;;;;;;;;;6261879;28;20056;-74
2022/04/20 17:07:31;;;;;;;5.50;4.43;;;;;;;;;;6259041;28;20504;-75
2022/04/20 17:10:33;;;;;;;7.05;4.70;;;;;;;;;;6263571;28;20053;-71
2022/04/20 17:13:36;;;;;;;10.95;4.38;;;;;;;;;;6263201;28;20049;-72
2022/04/20 17:16:37;;;;;;;10.25;4.30;;;;;;;;;;6263393;28;20053;-71
2022/04/20 17:19:39;;;;;;;10.55;4.82;;;;;;;;;;6263652;28;20049;-70
2022/04/20 17:29:21;;;;;;;5.65;4.35;;;;;;;;;;6257899;28;20045;-71
2022/04/20 17:32:22;;;;;;;;;;;;;;;;;;6261919;28;20052;-72
2022/04/20 17:38:43;;;;;;;6.32;4.15;;;;;;;;;;6250079;28;20430;-71
2022/04/20 17:41:47;;;;;;;6.82;3.72;;;;;;;;;;6256708;28;20072;-71
2022/04/20 17:44:50;;;;;;;9.15;4.28;;;;;;;;;;6256260;28;20052;-73
2022/04/20 17:47:52;;;;;;;7.28;4.20;;;;;;;;;;6260511;28;20053;-74
2022/04/20 17:50:54;;;;;;;7.90;4.05;;;;;;;;;;6257411;28;20171;-71
2022/04/20 17:53:56;;;;;;;7.13;4.53;;;;;;;;;;6252256;28;20053;-71
2022/04/20 17:56:57;;;;;;;6.35;4.30;;;;;;;;;;6256640;28;20143;-71
2022/04/20 18:00:00;;;;;;;6.57;4.00;;;;;;;;;;6256741;28;20081;-71
2022/04/20 18:03:02;;;;;;;6.77;5.13;;;;;;;;;;6255739;28;20052;-74
2022/04/20 18:06:04;;;;;;;8.05;5.20;;;;;;;;;;6258320;28;20499;-72
2022/04/20 18:09:07;;;;;;;10.30;6.68;;;;;;;;;;6258324;28;20045;-72
2022/04/20 18:12:09;;;;;;;8.73;6.00;;;;;;;;;;6255798;28;20045;-71
2022/04/20 18:15:13;;;;;;;10.05;5.72;;;;;;;;;;6256826;28;20465;-71
2022/04/20 18:18:15;;;;;;;9.32;4.97;;;;;;;;;;6255794;28;20048;-72
2022/04/20 18:21:17;;;;;;;10.13;5.20;;;;;;;;;;6253588;28;20056;-71
2022/04/20 18:24:18;;;;;;;6.90;4.78;;;;;;;;;;6258118;28;20512;-71
2022/04/20 18:27:20;;;;;;;6.80;5.00;;;;;;;;;;6252650;28;20053;-72
2022/04/20 18:30:23;;;;;;;6.45;4.45;;;;;;;;;;6254213;28;20062;-73
2022/04/20 18:33:25;;;;;;;5.07;4.20;;;;;;;;;;6254735;28;20057;-72
2022/04/20 18:36:26;;;;;;;9.38;4.13;;;;;;;;;;6256414;28;20500;-74
2022/04/20 18:39:29;;;;;;;9.52;4.47;;;;;;;;;;6258696;28;20524;-74
2022/04/20 18:42:30;;;;;;;8.98;4.25;;;;;;;;;;6256603;28;20045;-73
2022/04/20 18:45:33;;;;;;;9.93;4.38;;;;;;;;;;6249588;28;20049;-70
2022/04/20 18:48:40;;;;;;;6.90;3.90;;;;;;;;;;6255073;28;20428;-70
2022/04/20 18:51:41;;;;;;;9.80;4.13;;;;;;;;;;6254737;28;20049;-74
2022/04/20 18:58:02;;;;;;;8.07;4.15;;;;;;;;;;6252725;28;20080;-72
2022/04/20 19:01:05;;;;;;;9.23;3.80;;;;;;;;;;6257157;28;20451;-71
2022/04/20 19:04:47;;;;;;;8.90;4.22;;;;;;;;;;6257903;28;20146;-71
2022/04/20 19:07:30;;;;;;;6.25;3.95;;;;;;;;;;6254788;28;20045;-72
2022/04/20 19:10:33;;;;;;;8.77;4.40;;;;;;;;;;6253846;28;20060;-73
2022/04/20 19:13:35;;;;;;;8.25;4.20;;;;;;;;;;6259318;28;20056;-72
2022/04/20 19:16:38;;;;;;;7.43;4.05;;;;;;;;;;6262923;28;20057;-72
2022/04/20 19:19:40;;;;;;;7.77;4.40;;;;;;;;;;6261137;28;20067;-71